sensor_id;sensor_type;location;lat;lon;timestamp;P1;durP1;ratioP1;P2;durP2;ratioP2
44434;SDS011;30138;20.964;105.830;2023-04-24T00:02:56;99.20;;;58.13;;
44434;SDS011;30138;20.964;105.830;2023-04-24T00:08:03;87.93;;;56.28;;
44434;SDS011;30138;20.964;105.830;2023-04-24T00:13:12;97.95;;;57.28;;
44434;SDS011;30138;20.964;105.830;2023-04-24T00:18:19;90.50;;;56.28;;
44434;SDS011;30138;20.964;105.830;2023-04-24T00:23:27;99.75;;;58.10;;
44434;SDS011;30138;20.964;105.830;2023-04-24T00:28:37;96.53;;;57.25;;
44434;SDS011;30138;20.964;105.830;2023-04-24T00:33:44;99.57;;;59.63;;
44434;SDS011;30138;20.964;105.830;2023-04-24T00:38:51;96.82;;;58.70;;
44434;SDS011;30138;20.964;105.830;2023-04-24T00:44:00;96.78;;;57.97;;
44434;SDS011;30138;20.964;105.830;2023-04-24T00:49:08;95.38;;;57.10;;
44434;SDS011;30138;20.964;105.830;2023-04-24T00:54:15;92.20;;;58.30;;
44434;SDS011;30138;20.964;105.830;2023-04-24T00:59:24;97.32;;;56.90;;
44434;SDS011;30138;20.964;105.830;2023-04-24T01:04:32;97.82;;;55.88;;
44434;SDS011;30138;20.964;105.830;2023-04-24T01:09:39;98.15;;;55.35;;
44434;SDS011;30138;20.964;105.830;2023-04-24T01:14:50;92.72;;;57.08;;
44434;SDS011;30138;20.964;105.830;2023-04-24T01:19:58;92.65;;;57.60;;
44434;SDS011;30138;20.964;105.830;2023-04-24T01:25:09;95.25;;;56.67;;
44434;SDS011;30138;20.964;105.830;2023-04-24T01:30:16;100.78;;;57.83;;
44434;SDS011;30138;20.964;105.830;2023-04-24T01:35:23;92.40;;;57.90;;
44434;SDS011;30138;20.964;105.830;2023-04-24T01:40:32;108.35;;;59.65;;
44434;SDS011;30138;20.964;105.830;2023-04-24T01:45:39;95.72;;;58.28;;
44434;SDS011;30138;20.964;105.830;2023-04-24T01:50:46;94.35;;;57.17;;
44434;SDS011;30138;20.964;105.830;2023-04-24T01:55:55;93.20;;;57.05;;
44434;SDS011;30138;20.964;105.830;2023-04-24T02:01:05;86.65;;;57.17;;
44434;SDS011;30138;20.964;105.830;2023-04-24T02:06:13;84.82;;;54.35;;
44434;SDS011;30138;20.964;105.830;2023-04-24T02:11:21;84.95;;;54.28;;
44434;SDS011;30138;20.964;105.830;2023-04-24T02:16:28;96.57;;;57.78;;
44434;SDS011;30138;20.964;105.830;2023-04-24T02:21:37;85.25;;;55.45;;
44434;SDS011;30138;20.964;105.830;2023-04-24T02:26:46;84.88;;;53.90;;
44434;SDS011;30138;20.964;105.830;2023-04-24T02:31:52;90.70;;;57.28;;
44434;SDS011;30138;20.964;105.830;2023-04-24T02:36:59;95.55;;;59.20;;
44434;SDS011;30138;20.964;105.830;2023-04-24T02:42:08;96.93;;;59.78;;
44434;SDS011;30138;20.964;105.830;2023-04-24T02:47:16;98.35;;;62.47;;
44434;SDS011;30138;20.964;105.830;2023-04-24T02:52:24;90.97;;;59.55;;
44434;SDS011;30138;20.964;105.830;2023-04-24T02:57:33;91.40;;;59.17;;
44434;SDS011;30138;20.964;105.830;2023-04-24T03:02:41;96.07;;;61.13;;
44434;SDS011;30138;20.964;105.830;2023-04-24T03:07:49;89.93;;;60.85;;
44434;SDS011;30138;20.964;105.830;2023-04-24T03:12:58;97.97;;;61.85;;
44434;SDS011;30138;20.964;105.830;2023-04-24T03:18:06;90.28;;;58.92;;
44434;SDS011;30138;20.964;105.830;2023-04-24T03:23:13;93.05;;;61.95;;
44434;SDS011;30138;20.964;105.830;2023-04-24T03:28:22;90.22;;;61.20;;
44434;SDS011;30138;20.964;105.830;2023-04-24T03:33:39;94.57;;;63.83;;
44434;SDS011;30138;20.964;105.830;2023-04-24T03:38:46;96.50;;;63.33;;
44434;SDS011;30138;20.964;105.830;2023-04-24T03:44:02;88.55;;;58.63;;
44434;SDS011;30138;20.964;105.830;2023-04-24T03:49:10;88.22;;;57.97;;
44434;SDS011;30138;20.964;105.830;2023-04-24T03:54:20;88.97;;;59.42;;
44434;SDS011;30138;20.964;105.830;2023-04-24T03:59:31;87.38;;;58.83;;
44434;SDS011;30138;20.964;105.830;2023-04-24T04:04:49;87.97;;;59.88;;
44434;SDS011;30138;20.964;105.830;2023-04-24T04:09:56;81.22;;;55.00;;
44434;SDS011;30138;20.964;105.830;2023-04-24T04:15:06;85.05;;;57.47;;
44434;SDS011;30138;20.964;105.830;2023-04-24T04:20:14;87.10;;;57.10;;
44434;SDS011;30138;20.964;105.830;2023-04-24T04:25:21;88.28;;;57.58;;
44434;SDS011;30138;20.964;105.830;2023-04-24T04:30:30;88.38;;;57.28;;
44434;SDS011;30138;20.964;105.830;2023-04-24T04:35:40;89.18;;;57.60;;
44434;SDS011;30138;20.964;105.830;2023-04-24T04:40:50;82.97;;;57.33;;
44434;SDS011;30138;20.964;105.830;2023-04-24T04:46:02;84.68;;;55.42;;
44434;SDS011;30138;20.964;105.830;2023-04-24T04:51:22;85.90;;;55.85;;
44434;SDS011;30138;20.964;105.830;2023-04-24T04:56:29;80.90;;;54.30;;
44434;SDS011;30138;20.964;105.830;2023-04-24T05:01:40;81.60;;;55.67;;
44434;SDS011;30138;20.964;105.830;2023-04-24T05:06:49;88.65;;;56.55;;
44434;SDS011;30138;20.964;105.830;2023-04-24T05:12:04;86.63;;;55.50;;
44434;SDS011;30138;20.964;105.830;2023-04-24T05:17:22;82.57;;;57.28;;
44434;SDS011;30138;20.964;105.830;2023-04-24T05:22:32;80.40;;;56.28;;
44434;SDS011;30138;20.964;105.830;2023-04-24T05:27:39;80.72;;;56.30;;
44434;SDS011;30138;20.964;105.830;2023-04-24T05:32:52;78.27;;;55.90;;
44434;SDS011;30138;20.964;105.830;2023-04-24T05:37:59;83.07;;;57.22;;
44434;SDS011;30138;20.964;105.830;2023-04-24T05:43:06;82.90;;;57.35;;
44434;SDS011;30138;20.964;105.830;2023-04-24T05:48:15;79.60;;;56.65;;
44434;SDS011;30138;20.964;105.830;2023-04-24T05:53:23;88.45;;;56.97;;
44434;SDS011;30138;20.964;105.830;2023-04-24T05:58:34;84.65;;;56.55;;
44434;SDS011;30138;20.964;105.830;2023-04-24T06:03:44;79.20;;;55.63;;
44434;SDS011;30138;20.964;105.830;2023-04-24T06:08:51;81.88;;;55.97;;
44434;SDS011;30138;20.964;105.830;2023-04-24T06:14:01;80.55;;;55.78;;
44434;SDS011;30138;20.964;105.830;2023-04-24T06:19:15;77.47;;;54.83;;
44434;SDS011;30138;20.964;105.830;2023-04-24T06:24:27;79.10;;;55.45;;
44434;SDS011;30138;20.964;105.830;2023-04-24T06:29:33;89.30;;;57.97;;
44434;SDS011;30138;20.964;105.830;2023-04-24T06:34:43;82.30;;;56.00;;
44434;SDS011;30138;20.964;105.830;2023-04-24T06:39:50;80.28;;;53.88;;
44434;SDS011;30138;20.964;105.830;2023-04-24T06:44:58;78.25;;;54.80;;
44434;SDS011;30138;20.964;105.830;2023-04-24T06:50:07;81.30;;;55.15;;
44434;SDS011;30138;20.964;105.830;2023-04-24T06:55:15;79.05;;;56.45;;
44434;SDS011;30138;20.964;105.830;2023-04-24T07:00:22;86.30;;;56.67;;
44434;SDS011;30138;20.964;105.830;2023-04-24T07:05:31;80.30;;;54.13;;
44434;SDS011;30138;20.964;105.830;2023-04-24T07:10:39;75.93;;;52.53;;
44434;SDS011;30138;20.964;105.830;2023-04-24T07:15:47;79.97;;;53.13;;
44434;SDS011;30138;20.964;105.830;2023-04-24T07:20:57;76.43;;;53.80;;
44434;SDS011;30138;20.964;105.830;2023-04-24T07:26:05;75.82;;;52.42;;
44434;SDS011;30138;20.964;105.830;2023-04-24T07:31:12;79.90;;;54.17;;
44434;SDS011;30138;20.964;105.830;2023-04-24T07:36:21;69.55;;;50.40;;
44434;SDS011;30138;20.964;105.830;2023-04-24T07:41:28;76.97;;;53.28;;
44434;SDS011;30138;20.964;105.830;2023-04-24T07:46:35;74.38;;;52.28;;
44434;SDS011;30138;20.964;105.830;2023-04-24T07:51:44;76.20;;;53.15;;
44434;SDS011;30138;20.964;105.830;2023-04-24T07:56:51;76.22;;;52.70;;
44434;SDS011;30138;20.964;105.830;2023-04-24T08:01:58;75.63;;;52.38;;
44434;SDS011;30138;20.964;105.830;2023-04-24T08:07:08;73.82;;;51.05;;
44434;SDS011;30138;20.964;105.830;2023-04-24T08:12:15;70.15;;;50.42;;
44434;SDS011;30138;20.964;105.830;2023-04-24T08:17:23;71.82;;;50.90;;
44434;SDS011;30138;20.964;105.830;2023-04-24T08:22:32;66.38;;;46.75;;
44434;SDS011;30138;20.964;105.830;2023-04-24T08:27:38;68.28;;;48.75;;
44434;SDS011;30138;20.964;105.830;2023-04-24T08:32:45;67.07;;;46.97;;
44434;SDS011;30138;20.964;105.830;2023-04-24T08:37:54;68.88;;;49.58;;
44434;SDS011;30138;20.964;105.830;2023-04-24T08:43:01;65.15;;;44.42;;
44434;SDS011;30138;20.964;105.830;2023-04-24T08:48:09;69.72;;;45.97;;
44434;SDS011;30138;20.964;105.830;2023-04-24T08:53:18;64.82;;;44.03;;
44434;SDS011;30138;20.964;105.830;2023-04-24T08:58:26;70.65;;;46.17;;
44434;SDS011;30138;20.964;105.830;2023-04-24T09:03:34;63.33;;;45.38;;
44434;SDS011;30138;20.964;105.830;2023-04-24T09:08:43;66.28;;;46.35;;
44434;SDS011;30138;20.964;105.830;2023-04-24T09:13:50;63.05;;;44.50;;
44434;SDS011;30138;20.964;105.830;2023-04-24T09:19:02;63.15;;;42.50;;
44434;SDS011;30138;20.964;105.830;2023-04-24T09:24:14;64.95;;;43.03;;
44434;SDS011;30138;20.964;105.830;2023-04-24T09:29:24;61.90;;;42.30;;
44434;SDS011;30138;20.964;105.830;2023-04-24T09:34:33;60.92;;;41.60;;
44434;SDS011;30138;20.964;105.830;2023-04-24T09:39:43;65.45;;;42.42;;
44434;SDS011;30138;20.964;105.830;2023-04-24T09:44:50;62.55;;;41.20;;
44434;SDS011;30138;20.964;105.830;2023-04-24T09:49:57;68.60;;;40.63;;
44434;SDS011;30138;20.964;105.830;2023-04-24T09:55:14;60.75;;;41.72;;
44434;SDS011;30138;20.964;105.830;2023-04-24T10:00:24;58.83;;;39.72;;
44434;SDS011;30138;20.964;105.830;2023-04-24T10:05:33;58.67;;;39.90;;
44434;SDS011;30138;20.964;105.830;2023-04-24T10:10:43;61.80;;;42.00;;
44434;SDS011;30138;20.964;105.830;2023-04-24T10:15:50;61.38;;;41.10;;
44434;SDS011;30138;20.964;105.830;2023-04-24T10:20:58;59.60;;;40.38;;
44434;SDS011;30138;20.964;105.830;2023-04-24T10:26:08;65.95;;;42.15;;
44434;SDS011;30138;20.964;105.830;2023-04-24T10:31:19;60.28;;;40.88;;
44434;SDS011;30138;20.964;105.830;2023-04-24T10:36:26;63.63;;;41.20;;
44434;SDS011;30138;20.964;105.830;2023-04-24T10:41:36;58.33;;;39.75;;
44434;SDS011;30138;20.964;105.830;2023-04-24T10:46:44;61.90;;;40.35;;
44434;SDS011;30138;20.964;105.830;2023-04-24T10:51:52;59.13;;;40.65;;
44434;SDS011;30138;20.964;105.830;2023-04-24T11:02:36;64.00;;;40.00;;
44434;SDS011;30138;20.964;105.830;2023-04-24T11:13:20;64.47;;;39.58;;
44434;SDS011;30138;20.964;105.830;2023-04-24T11:18:35;60.33;;;41.03;;
44434;SDS011;30138;20.964;105.830;2023-04-24T11:23:46;66.13;;;41.92;;
44434;SDS011;30138;20.964;105.830;2023-04-24T11:28:56;69.07;;;41.50;;
44434;SDS011;30138;20.964;105.830;2023-04-24T11:34:13;66.88;;;42.72;;
44434;SDS011;30138;20.964;105.830;2023-04-24T11:39:22;69.68;;;44.05;;
44434;SDS011;30138;20.964;105.830;2023-04-24T11:44:32;70.05;;;43.33;;
44434;SDS011;30138;20.964;105.830;2023-04-24T11:49:41;72.13;;;43.23;;
44434;SDS011;30138;20.964;105.830;2023-04-24T11:54:48;71.40;;;45.75;;
44434;SDS011;30138;20.964;105.830;2023-04-24T11:59:57;79.80;;;45.97;;
44434;SDS011;30138;20.964;105.830;2023-04-24T12:05:19;75.22;;;46.90;;
44434;SDS011;30138;20.964;105.830;2023-04-24T12:10:28;70.93;;;45.72;;
44434;SDS011;30138;20.964;105.830;2023-04-24T12:15:39;70.72;;;44.80;;
44434;SDS011;30138;20.964;105.830;2023-04-24T12:20:46;72.70;;;44.88;;
44434;SDS011;30138;20.964;105.830;2023-04-24T12:25:59;76.28;;;43.88;;
44434;SDS011;30138;20.964;105.830;2023-04-24T12:31:10;75.03;;;45.60;;
44434;SDS011;30138;20.964;105.830;2023-04-24T12:36:21;78.05;;;45.15;;
44434;SDS011;30138;20.964;105.830;2023-04-24T12:41:30;75.75;;;44.95;;
44434;SDS011;30138;20.964;105.830;2023-04-24T12:46:43;80.60;;;45.92;;
44434;SDS011;30138;20.964;105.830;2023-04-24T12:51:55;72.18;;;44.92;;
44434;SDS011;30138;20.964;105.830;2023-04-24T12:57:12;75.00;;;43.80;;
44434;SDS011;30138;20.964;105.830;2023-04-24T13:02:29;72.28;;;43.10;;
44434;SDS011;30138;20.964;105.830;2023-04-24T13:07:40;71.18;;;43.10;;
44434;SDS011;30138;20.964;105.830;2023-04-24T13:12:47;63.75;;;42.10;;
44434;SDS011;30138;20.964;105.830;2023-04-24T13:17:55;62.53;;;38.50;;
44434;SDS011;30138;20.964;105.830;2023-04-24T13:23:04;57.33;;;36.58;;
44434;SDS011;30138;20.964;105.830;2023-04-24T13:28:15;61.25;;;37.53;;
44434;SDS011;30138;20.964;105.830;2023-04-24T13:33:23;57.13;;;35.28;;
44434;SDS011;30138;20.964;105.830;2023-04-24T13:38:31;61.17;;;35.90;;
44434;SDS011;30138;20.964;105.830;2023-04-24T13:43:38;56.50;;;35.60;;
44434;SDS011;30138;20.964;105.830;2023-04-24T13:48:47;65.72;;;37.53;;
44434;SDS011;30138;20.964;105.830;2023-04-24T13:53:56;62.08;;;36.17;;
44434;SDS011;30138;20.964;105.830;2023-04-24T13:59:03;59.63;;;37.40;;
44434;SDS011;30138;20.964;105.830;2023-04-24T14:04:12;63.22;;;39.03;;
44434;SDS011;30138;20.964;105.830;2023-04-24T14:09:21;63.90;;;39.53;;
44434;SDS011;30138;20.964;105.830;2023-04-24T14:14:28;71.65;;;41.67;;
44434;SDS011;30138;20.964;105.830;2023-04-24T14:19:39;73.88;;;45.03;;
44434;SDS011;30138;20.964;105.830;2023-04-24T14:24:46;75.47;;;46.17;;
44434;SDS011;30138;20.964;105.830;2023-04-24T14:29:54;75.35;;;45.83;;
44434;SDS011;30138;20.964;105.830;2023-04-24T14:35:04;72.10;;;45.72;;
44434;SDS011;30138;20.964;105.830;2023-04-24T14:40:12;72.53;;;43.10;;
44434;SDS011;30138;20.964;105.830;2023-04-24T14:45:19;73.85;;;42.25;;
44434;SDS011;30138;20.964;105.830;2023-04-24T14:50:28;60.22;;;40.40;;
44434;SDS011;30138;20.964;105.830;2023-04-24T14:55:36;61.08;;;38.28;;
44434;SDS011;30138;20.964;105.830;2023-04-24T15:00:43;56.97;;;38.25;;
44434;SDS011;30138;20.964;105.830;2023-04-24T15:05:53;56.97;;;36.05;;
44434;SDS011;30138;20.964;105.830;2023-04-24T15:11:01;56.30;;;35.85;;
44434;SDS011;30138;20.964;105.830;2023-04-24T15:16:09;58.03;;;36.47;;
44434;SDS011;30138;20.964;105.830;2023-04-24T15:21:18;55.75;;;35.92;;
44434;SDS011;30138;20.964;105.830;2023-04-24T15:26:26;57.57;;;37.23;;
44434;SDS011;30138;20.964;105.830;2023-04-24T15:31:34;52.78;;;35.85;;
44434;SDS011;30138;20.964;105.830;2023-04-24T15:36:43;50.03;;;35.63;;
44434;SDS011;30138;20.964;105.830;2023-04-24T15:41:50;61.60;;;37.35;;
44434;SDS011;30138;20.964;105.830;2023-04-24T15:47:00;56.97;;;35.78;;
44434;SDS011;30138;20.964;105.830;2023-04-24T15:52:09;61.72;;;36.33;;
44434;SDS011;30138;20.964;105.830;2023-04-24T15:57:17;55.33;;;36.83;;
44434;SDS011;30138;20.964;105.830;2023-04-24T16:02:24;54.42;;;35.97;;
44434;SDS011;30138;20.964;105.830;2023-04-24T16:07:34;60.95;;;36.72;;
44434;SDS011;30138;20.964;105.830;2023-04-24T16:12:42;55.08;;;36.13;;
44434;SDS011;30138;20.964;105.830;2023-04-24T16:17:49;54.58;;;37.25;;
44434;SDS011;30138;20.964;105.830;2023-04-24T16:22:58;57.78;;;36.58;;
44434;SDS011;30138;20.964;105.830;2023-04-24T16:28:05;58.92;;;37.22;;
44434;SDS011;30138;20.964;105.830;2023-04-24T16:33:12;53.65;;;36.55;;
44434;SDS011;30138;20.964;105.830;2023-04-24T16:38:22;59.17;;;36.08;;
44434;SDS011;30138;20.964;105.830;2023-04-24T16:43:29;56.95;;;36.80;;
44434;SDS011;30138;20.964;105.830;2023-04-24T16:48:37;52.50;;;34.22;;
44434;SDS011;30138;20.964;105.830;2023-04-24T16:53:47;51.58;;;34.38;;
44434;SDS011;30138;20.964;105.830;2023-04-24T16:58:56;51.92;;;33.20;;
44434;SDS011;30138;20.964;105.830;2023-04-24T17:04:12;46.30;;;31.85;;
44434;SDS011;30138;20.964;105.830;2023-04-24T17:09:23;50.95;;;33.00;;
44434;SDS011;30138;20.964;105.830;2023-04-24T17:14:30;53.10;;;33.40;;
44434;SDS011;30138;20.964;105.830;2023-04-24T17:19:37;52.30;;;32.83;;
44434;SDS011;30138;20.964;105.830;2023-04-24T17:24:46;54.40;;;33.83;;
44434;SDS011;30138;20.964;105.830;2023-04-24T17:29:52;61.55;;;35.38;;
44434;SDS011;30138;20.964;105.830;2023-04-24T17:35:00;54.20;;;33.67;;
44434;SDS011;30138;20.964;105.830;2023-04-24T17:40:09;55.70;;;35.88;;
44434;SDS011;30138;20.964;105.830;2023-04-24T17:45:17;52.77;;;34.60;;
44434;SDS011;30138;20.964;105.830;2023-04-24T17:50:24;58.47;;;35.45;;
44434;SDS011;30138;20.964;105.830;2023-04-24T17:55:33;55.40;;;34.60;;
44434;SDS011;30138;20.964;105.830;2023-04-24T18:00:41;56.85;;;33.88;;
44434;SDS011;30138;20.964;105.830;2023-04-24T18:05:51;62.20;;;34.77;;
44434;SDS011;30138;20.964;105.830;2023-04-24T18:11:03;57.45;;;33.50;;
44434;SDS011;30138;20.964;105.830;2023-04-24T18:16:11;52.78;;;31.85;;
44434;SDS011;30138;20.964;105.830;2023-04-24T18:21:17;57.63;;;29.77;;
44434;SDS011;30138;20.964;105.830;2023-04-24T18:26:27;47.50;;;28.10;;
44434;SDS011;30138;20.964;105.830;2023-04-24T18:31:34;51.83;;;27.88;;
44434;SDS011;30138;20.964;105.830;2023-04-24T18:36:41;45.20;;;27.55;;
44434;SDS011;30138;20.964;105.830;2023-04-24T18:41:50;43.72;;;26.75;;
44434;SDS011;30138;20.964;105.830;2023-04-24T18:46:57;45.97;;;28.35;;
44434;SDS011;30138;20.964;105.830;2023-04-24T18:52:04;48.03;;;26.80;;
44434;SDS011;30138;20.964;105.830;2023-04-24T18:57:14;51.47;;;26.63;;
44434;SDS011;30138;20.964;105.830;2023-04-24T19:02:22;46.13;;;26.77;;
44434;SDS011;30138;20.964;105.830;2023-04-24T19:07:29;49.28;;;26.17;;
44434;SDS011;30138;20.964;105.830;2023-04-24T19:12:38;47.72;;;25.45;;
44434;SDS011;30138;20.964;105.830;2023-04-24T19:17:45;41.20;;;26.45;;
44434;SDS011;30138;20.964;105.830;2023-04-24T19:22:53;47.13;;;25.65;;
44434;SDS011;30138;20.964;105.830;2023-04-24T19:28:03;44.22;;;25.13;;
44434;SDS011;30138;20.964;105.830;2023-04-24T19:33:10;40.10;;;24.30;;
44434;SDS011;30138;20.964;105.830;2023-04-24T19:38:17;39.67;;;23.83;;
44434;SDS011;30138;20.964;105.830;2023-04-24T19:43:27;40.70;;;23.95;;
44434;SDS011;30138;20.964;105.830;2023-04-24T19:48:35;48.85;;;26.02;;
44434;SDS011;30138;20.964;105.830;2023-04-24T19:53:42;47.80;;;26.52;;
44434;SDS011;30138;20.964;105.830;2023-04-24T19:58:54;47.78;;;26.15;;
44434;SDS011;30138;20.964;105.830;2023-04-24T20:04:01;43.28;;;25.23;;
44434;SDS011;30138;20.964;105.830;2023-04-24T20:09:10;47.90;;;26.48;;
44434;SDS011;30138;20.964;105.830;2023-04-24T20:14:19;42.53;;;24.67;;
44434;SDS011;30138;20.964;105.830;2023-04-24T20:19:26;44.67;;;25.13;;
44434;SDS011;30138;20.964;105.830;2023-04-24T20:24:33;40.28;;;25.77;;
44434;SDS011;30138;20.964;105.830;2023-04-24T20:29:42;44.65;;;25.27;;
44434;SDS011;30138;20.964;105.830;2023-04-24T20:34:48;45.20;;;25.73;;
44434;SDS011;30138;20.964;105.830;2023-04-24T20:39:57;53.97;;;26.30;;
44434;SDS011;30138;20.964;105.830;2023-04-24T20:45:08;43.47;;;25.58;;
44434;SDS011;30138;20.964;105.830;2023-04-24T20:50:15;47.97;;;28.30;;
44434;SDS011;30138;20.964;105.830;2023-04-24T20:55:22;47.53;;;27.55;;
44434;SDS011;30138;20.964;105.830;2023-04-24T21:00:32;48.25;;;28.65;;
44434;SDS011;30138;20.964;105.830;2023-04-24T21:05:38;57.17;;;34.92;;
44434;SDS011;30138;20.964;105.830;2023-04-24T21:10:46;63.75;;;39.33;;
44434;SDS011;30138;20.964;105.830;2023-04-24T21:15:55;64.88;;;39.85;;
44434;SDS011;30138;20.964;105.830;2023-04-24T21:21:02;60.60;;;35.70;;
44434;SDS011;30138;20.964;105.830;2023-04-24T21:26:09;57.10;;;35.15;;
44434;SDS011;30138;20.964;105.830;2023-04-24T21:31:18;55.70;;;33.83;;
44434;SDS011;30138;20.964;105.830;2023-04-24T21:36:26;54.80;;;32.35;;
44434;SDS011;30138;20.964;105.830;2023-04-24T21:41:33;52.85;;;31.02;;
44434;SDS011;30138;20.964;105.830;2023-04-24T21:46:42;56.65;;;32.85;;
44434;SDS011;30138;20.964;105.830;2023-04-24T21:51:50;55.50;;;35.80;;
44434;SDS011;30138;20.964;105.830;2023-04-24T21:56:56;55.85;;;35.08;;
44434;SDS011;30138;20.964;105.830;2023-04-24T22:02:07;62.05;;;36.53;;
44434;SDS011;30138;20.964;105.830;2023-04-24T22:07:15;67.00;;;37.10;;
44434;SDS011;30138;20.964;105.830;2023-04-24T22:12:22;65.50;;;39.40;;
44434;SDS011;30138;20.964;105.830;2023-04-24T22:17:31;69.90;;;41.30;;
44434;SDS011;30138;20.964;105.830;2023-04-24T22:22:39;70.28;;;43.05;;
44434;SDS011;30138;20.964;105.830;2023-04-24T22:27:52;71.63;;;42.42;;
44434;SDS011;30138;20.964;105.830;2023-04-24T22:33:02;69.78;;;42.65;;
44434;SDS011;30138;20.964;105.830;2023-04-24T22:38:09;71.50;;;43.03;;
44434;SDS011;30138;20.964;105.830;2023-04-24T22:43:16;69.10;;;42.20;;
44434;SDS011;30138;20.964;105.830;2023-04-24T22:48:25;70.28;;;42.60;;
44434;SDS011;30138;20.964;105.830;2023-04-24T22:53:33;74.13;;;44.13;;
44434;SDS011;30138;20.964;105.830;2023-04-24T22:58:41;84.50;;;45.42;;
44434;SDS011;30138;20.964;105.830;2023-04-24T23:03:50;77.00;;;44.00;;
44434;SDS011;30138;20.964;105.830;2023-04-24T23:08:58;73.90;;;44.55;;
44434;SDS011;30138;20.964;105.830;2023-04-24T23:14:04;76.20;;;43.80;;
44434;SDS011;30138;20.964;105.830;2023-04-24T23:19:13;74.32;;;42.72;;
44434;SDS011;30138;20.964;105.830;2023-04-24T23:24:21;71.38;;;41.33;;
44434;SDS011;30138;20.964;105.830;2023-04-24T23:29:28;69.38;;;42.70;;
44434;SDS011;30138;20.964;105.830;2023-04-24T23:34:37;70.95;;;40.63;;
44434;SDS011;30138;20.964;105.830;2023-04-24T23:39:45;72.45;;;41.83;;
44434;SDS011;30138;20.964;105.830;2023-04-24T23:44:53;77.13;;;42.45;;
44434;SDS011;30138;20.964;105.830;2023-04-24T23:50:02;68.55;;;38.17;;
44434;SDS011;30138;20.964;105.830;2023-04-24T23:55:11;76.55;;;39.17;;
